createdAt,value
2022-11-28T00:05:29.668Z,19.77
2022-11-28T00:11:56.943Z,19.75
2022-11-28T00:18:29.361Z,19.76
2022-11-28T00:24:54.180Z,19.78
2022-11-28T00:31:32.404Z,19.75
2022-11-28T00:38:00.754Z,19.76
2022-11-28T00:44:35.632Z,19.72
2022-11-28T00:50:59.624Z,19.7
2022-11-28T00:57:27.972Z,19.77
2022-11-28T01:03:51.807Z,19.75
2022-11-28T01:10:22.952Z,19.71
2022-11-28T01:16:43.560Z,19.75
2022-11-28T01:23:05.494Z,19.73
2022-11-28T01:29:36.095Z,19.68
2022-11-28T01:36:02.454Z,19.68
2022-11-28T01:42:44.822Z,19.71
2022-11-28T01:49:23.544Z,19.72
2022-11-28T01:56:10.450Z,19.73
2022-11-28T02:02:51.595Z,19.75
2022-11-28T02:09:30.715Z,19.68
2022-11-28T02:16:29.990Z,19.73
2022-11-28T02:23:37.583Z,19.71
2022-11-28T02:30:53.006Z,19.62
2022-11-28T02:37:51.516Z,19.69
2022-11-28T02:44:53.433Z,19.59
2022-11-28T02:52:05.100Z,19.67
2022-11-28T02:58:47.855Z,19.7
2022-11-28T03:05:45.109Z,19.66
2022-11-28T03:12:42.611Z,19.67
2022-11-28T03:19:48.492Z,19.65
2022-11-28T03:26:55.769Z,19.59
2022-11-28T03:33:55.441Z,19.6
2022-11-28T03:41:00.335Z,19.71
2022-11-28T03:48:03.551Z,19.63
2022-11-28T03:55:05.529Z,19.64
2022-11-28T04:02:21.474Z,19.74
2022-11-28T04:09:31.552Z,19.66
2022-11-28T04:16:37.005Z,19.63
2022-11-28T04:23:47.699Z,19.84
2022-11-28T04:30:49.692Z,19.85
2022-11-28T04:37:36.131Z,19.77
2022-11-28T04:44:26.716Z,20.33
2022-11-28T04:51:13.564Z,21.43
2022-11-28T04:58:26.765Z,21.89
2022-11-28T05:05:23.705Z,22.05
2022-11-28T05:12:01.630Z,21.81
2022-11-28T05:18:32.635Z,21.75
2022-11-28T05:24:58.698Z,21.41
2022-11-28T05:31:35.168Z,21.39
2022-11-28T05:38:07.184Z,21.29
2022-11-28T05:44:50.421Z,21.11
2022-11-28T05:51:17.657Z,21.01
2022-11-28T05:57:46.801Z,20.83
2022-11-28T06:04:07.958Z,20.65
2022-11-28T06:10:46.641Z,20.53
2022-11-28T06:17:17.823Z,21.55
2022-11-28T06:23:50.726Z,22.32
2022-11-28T06:30:20.794Z,22.62
2022-11-28T06:36:45.979Z,23.09
2022-11-28T06:43:12.237Z,22.99
2022-11-28T06:49:34.653Z,23.19
2022-11-28T06:56:05.815Z,23.24
2022-11-28T07:02:36.845Z,23.28
2022-11-28T07:09:06.673Z,23.27
2022-11-28T07:15:35.022Z,23.22
2022-11-28T07:22:13.188Z,22.96
2022-11-28T07:28:47.247Z,22.64
2022-11-28T07:35:23.922Z,22.53
2022-11-28T07:41:51.797Z,22.17
2022-11-28T07:48:26.816Z,21.96
2022-11-28T07:55:01.757Z,21.76
2022-11-28T08:01:28.757Z,21.79
2022-11-28T08:07:57.986Z,22
2022-11-28T08:14:33.748Z,21.89
2022-11-28T08:21:02.727Z,22.02
2022-11-28T08:27:37.143Z,22.08
2022-11-28T08:34:10.814Z,22.28
2022-11-28T08:40:40.762Z,22.21
2022-11-28T08:47:30.192Z,22.08
2022-11-28T08:54:19.207Z,22.46
2022-11-28T09:01:53.952Z,21.83
2022-11-28T09:09:39.825Z,21.79
2022-11-28T09:17:31.068Z,21.55
2022-11-28T09:24:57.854Z,21.9
2022-11-28T09:32:29.410Z,21.81
2022-11-28T09:40:12.902Z,21.94
2022-11-28T09:48:02.880Z,22.2
2022-11-28T09:56:10.477Z,22.09
2022-11-28T10:04:34.881Z,22.14
2022-11-28T10:12:57.302Z,21.99
2022-11-28T10:21:16.319Z,21.79
2022-11-28T10:29:21.487Z,21.77
2022-11-28T10:37:36.807Z,21.7
2022-11-28T10:45:44.298Z,21.7
2022-11-28T10:53:45.403Z,21.61
2022-11-28T11:01:52.487Z,21.59
2022-11-28T11:10:01.620Z,21.76
2022-11-28T11:18:04.939Z,21.89
2022-11-28T11:25:45.564Z,21.79
2022-11-28T11:33:40.319Z,21.77
2022-11-28T11:41:27.244Z,21.69
2022-11-28T11:49:22.924Z,21.67
2022-11-28T11:57:34.076Z,21.35
2022-11-28T12:06:16.075Z,21.38
2022-11-28T12:14:03.163Z,21.33
2022-11-28T12:22:11.149Z,21.19
2022-11-28T12:30:21.563Z,21.2
2022-11-28T12:38:18.948Z,21.13
2022-11-28T12:46:46.431Z,21.24
2022-11-28T12:55:03.686Z,21.3
2022-11-28T13:03:14.984Z,21.12
2022-11-28T13:11:29.919Z,21.05
2022-11-28T13:19:42.927Z,21.09
2022-11-28T13:28:01.735Z,20.98
2022-11-28T13:35:58.263Z,21.13
2022-11-28T13:44:03.041Z,21.02
2022-11-28T13:52:13.632Z,20.83
2022-11-28T14:00:20.212Z,21.15
2022-11-28T14:08:29.777Z,20.75
2022-11-28T14:16:29.588Z,20.88
2022-11-28T14:24:40.168Z,20.86
2022-11-28T14:32:48.995Z,21.07
2022-11-28T14:40:50.901Z,20.97
2022-11-28T14:48:39.169Z,20.83
2022-11-28T14:56:13.222Z,20.76
2022-11-28T15:04:07.495Z,20.73
2022-11-28T15:12:09.418Z,20.63
2022-11-28T15:20:09.023Z,20.64
2022-11-28T15:27:54.959Z,20.54
2022-11-28T15:35:33.036Z,20.52
2022-11-28T15:43:25.487Z,20.5
2022-11-28T15:51:19.380Z,20.4
2022-11-28T15:59:07.235Z,20.36
2022-11-28T16:06:49.002Z,20.31
2022-11-28T16:14:51.589Z,20.35
2022-11-28T16:22:46.649Z,20.27
2022-11-28T16:30:40.222Z,20.23
2022-11-28T16:38:43.072Z,20.2
2022-11-28T16:46:18.645Z,20.19
2022-11-28T16:54:14.580Z,20.1
2022-11-28T17:01:52.037Z,20.13
2022-11-28T17:09:24.434Z,20.07
2022-11-28T17:17:11.750Z,19.98
2022-11-28T17:24:58.030Z,20.01
2022-11-28T17:32:19.696Z,19.99
2022-11-28T17:39:52.026Z,19.87
2022-11-28T17:47:28.681Z,19.87
2022-11-28T17:55:16.681Z,19.84
2022-11-28T18:02:49.894Z,19.95
2022-11-28T18:10:33.630Z,19.95
2022-11-28T18:17:51.650Z,19.99
2022-11-28T18:25:20.104Z,20
2022-11-28T18:32:56.783Z,19.99
2022-11-28T18:40:35.195Z,20
2022-11-28T18:48:09.413Z,19.94
2022-11-28T18:55:44.533Z,19.98
2022-11-28T19:03:09.196Z,19.94
2022-11-28T19:10:45.748Z,19.88
2022-11-28T19:18:23.691Z,19.85
2022-11-28T19:25:54.220Z,19.86
2022-11-28T19:33:28.235Z,19.83
2022-11-28T19:40:57.988Z,19.81
2022-11-28T19:48:39.108Z,19.78
2022-11-28T19:56:19.364Z,19.82
2022-11-28T20:04:04.754Z,19.78
2022-11-28T20:11:39.817Z,19.74
2022-11-28T20:19:16.350Z,19.71
2022-11-28T20:26:47.129Z,19.76
2022-11-28T20:34:33.796Z,19.73
2022-11-28T20:42:13.608Z,19.74
2022-11-28T20:49:47.238Z,19.7
2022-11-28T20:57:36.610Z,19.68
2022-11-28T21:05:12.349Z,19.72
2022-11-28T21:12:48.899Z,19.75
2022-11-28T21:20:23.874Z,19.69
2022-11-28T21:28:01.613Z,19.69
2022-11-28T21:35:32.946Z,19.63
2022-11-28T21:43:09.709Z,19.65
2022-11-28T21:50:35.887Z,19.63
2022-11-28T21:58:22.415Z,19.58
2022-11-28T22:06:10.302Z,19.62
2022-11-28T22:13:57.645Z,19.6
2022-11-28T22:21:49.686Z,19.6
2022-11-28T22:29:11.150Z,19.54
2022-11-28T22:36:42.193Z,19.48
2022-11-28T22:44:11.154Z,19.56
2022-11-28T22:51:36.543Z,19.5
2022-11-28T22:59:00.552Z,19.5
2022-11-28T23:06:11.882Z,19.49
2022-11-28T23:13:40.733Z,19.5
2022-11-28T23:21:27.132Z,19.53
2022-11-28T23:29:03.600Z,19.6
2022-11-28T23:36:38.612Z,19.59
2022-11-28T23:44:26.385Z,19.6
2022-11-28T23:51:58.828Z,19.59
2022-11-28T23:59:25.611Z,19.5
